Time;durP1;ratioP1;P1;durP2;ratioP2;P2;SDS_P1;SDS_P2;PMS_P1;PMS_P2;Temp;Humidity;BMP_temperature;BMP_pressure;BME280_temperature;BME280_humidity;BME280_pressure;Samples;Min_cycle;Max_cycle;Signal;HPM_P1;HPM_P2
2022/04/28 00:01:32;;;;;;;0.20;0.20;;;8.80;99.90;;;8.43;100.00;100942.81;4988343;28;20213;-73
2022/04/28 00:04:00;;;;;;;0.20;0.20;;;8.70;99.90;;;8.42;100.00;100946.28;4987680;28;20213;-74
2022/04/28 00:06:28;;;;;;;0.20;0.20;;;8.80;99.90;;;7.93;100.00;100933.53;4990457;28;20223;-73
2022/04/28 00:08:55;;;;;;;0.10;0.10;;;8.70;99.90;;;7.66;100.00;100949.41;4985409;28;20217;-74
2022/04/28 00:11:25;;;;;;;0.30;0.30;;;8.50;99.90;;;7.80;100.00;100987.59;4988415;28;20229;-74
2022/04/28 00:13:52;;;;;;;0.20;0.20;;;8.40;99.90;;;7.72;100.00;100987.31;4989084;28;20200;-74
2022/04/28 00:16:20;;;;;;;0.10;0.10;;;8.40;99.90;;;7.83;100.00;100994.69;4980965;28;20240;-74
2022/04/28 00:18:50;;;;;;;1.35;0.85;;;8.30;99.90;;;7.83;100.00;100992.03;4968759;28;20666;-74
2022/04/28 00:21:18;;;;;;;0.20;0.20;;;8.30;99.90;;;7.85;100.00;100999.13;4969958;28;20216;-74
2022/04/28 00:23:46;;;;;;;0.20;0.20;;;8.30;99.90;;;7.88;100.00;101011.50;4986099;28;20212;-74
2022/04/28 00:26:15;;;;;;;0.20;0.20;;;8.30;99.90;;;7.71;100.00;101000.44;4963025;28;20236;-74
2022/04/28 00:28:42;;;;;;;0.20;0.20;;;8.30;99.90;;;7.83;100.00;101024.53;4971920;28;20209;-74
2022/04/28 00:31:10;;;;;;;0.20;0.20;;;8.30;99.90;;;7.90;100.00;101030.88;4964553;28;20236;-74
2022/04/28 00:33:41;;;;;;;0.20;0.20;;;8.30;99.90;;;7.95;100.00;101021.38;4980908;28;20209;-74
2022/04/28 00:36:10;;;;;;;0.10;0.10;;;8.30;99.90;;;7.61;100.00;101001.03;4968948;28;20237;-74
2022/04/28 00:38:38;;;;;;;0.20;0.20;;;8.30;99.90;;;7.77;100.00;101026.06;4985192;28;20566;-74
2022/04/28 00:41:06;;;;;;;0.20;0.20;;;8.20;99.90;;;7.81;100.00;101028.88;4967955;28;20217;-74
2022/04/28 00:43:53;;;;;;;0.35;0.35;;;8.10;99.90;;;7.64;100.00;101022.16;4981454;28;20210;-74
2022/04/28 00:46:22;;;;;;;0.10;0.10;;;8.10;99.90;;;7.68;100.00;101029.31;4969678;28;20233;-74
2022/04/28 00:51:36;;;;;;;0.20;0.20;;;7.90;99.90;;;7.11;100.00;101041.53;4987163;28;20233;-74
2022/04/28 00:54:05;;;;;;;0.20;0.20;;;7.90;99.90;;;6.88;100.00;101048.69;4981245;28;20224;-73
2022/04/28 00:56:33;;;;;;;0.20;0.20;;;7.70;99.90;;;7.15;100.00;101061.84;4967496;28;20224;-74
2022/04/28 00:59:02;;;;;;;0.30;0.30;;;7.60;99.90;;;7.37;100.00;101078.38;4979553;28;20212;-74
2022/04/28 01:01:32;;;;;;;0.20;0.20;;;7.70;99.90;;;7.19;100.00;101075.16;4966684;28;20244;-73
2022/04/28 01:04:01;;;;;;;0.20;0.20;;;7.70;99.90;;;7.02;100.00;101071.06;4987743;28;20216;-73
2022/04/28 01:06:29;;;;;;;0.52;0.52;;;7.60;99.90;;;7.19;100.00;101090.94;4982647;28;20229;-74
2022/04/28 01:08:57;;;;;;;0.10;0.10;;;7.60;99.90;;;7.04;100.00;101096.56;4989859;28;20583;-74
2022/04/28 01:11:29;;;;;;;0.20;0.20;;;7.60;99.90;;;7.01;100.00;101114.88;4975143;28;20236;-74
2022/04/28 01:14:09;;;;;;;0.20;0.20;;;7.50;99.90;;;7.03;100.00;101134.22;4971954;28;20209;-74
2022/04/28 01:16:44;;;;;;;0.20;0.20;;;7.50;99.90;;;7.02;100.00;101142.97;4989002;28;20232;-73
2022/04/28 01:19:12;;;;;;;0.20;0.20;;;7.50;99.90;;;7.04;100.00;101133.38;4971842;28;20212;-73
2022/04/28 01:21:40;;;;;;;0.20;0.20;;;7.40;99.90;;;6.82;100.00;101122.97;4972282;28;20209;-74
2022/04/28 01:24:16;;;;;;;0.20;0.20;;;7.40;99.90;;;6.79;100.00;101125.50;4972259;28;20220;-74
2022/04/28 01:26:46;;;;;;;0.20;0.20;;;7.40;99.90;;;6.75;100.00;101131.47;4972142;28;20240;-74
2022/04/28 01:29:14;;;;;;;0.30;0.30;;;7.30;99.90;;;6.77;100.00;101136.78;4973923;28;20213;-73
2022/04/28 01:31:42;;;;;;;0.30;0.30;;;7.20;99.90;;;6.74;100.00;101155.97;4989022;28;20240;-73
2022/04/28 01:34:10;;;;;;;0.20;0.20;;;7.20;99.90;;;6.68;100.00;101161.00;4988698;28;20205;-74
2022/04/28 01:36:40;;;;;;;0.20;0.20;;;7.20;99.90;;;6.69;100.00;101174.22;4991217;28;20229;-74
2022/04/28 01:39:09;;;;;;;0.20;0.20;;;7.10;99.90;;;6.55;100.00;101171.91;4970548;28;20214;-74
2022/04/28 01:41:39;;;;;;;0.20;0.20;;;7.10;99.90;;;6.45;100.00;101167.13;4988405;28;20208;-74
2022/04/28 01:44:07;;;;;;;0.20;0.20;;;7.00;99.90;;;6.50;100.00;101173.44;4981146;28;20205;-74
2022/04/28 01:46:36;;;;;;;0.20;0.20;;;7.00;99.90;;;6.72;100.00;101186.56;4973101;28;20230;-74
2022/04/28 01:49:27;;;;;;;0.20;0.20;;;7.00;99.90;;;6.79;100.00;101187.69;4969238;28;20220;-74
2022/04/28 01:55:19;;;;;;;0.20;0.20;;;7.10;99.90;;;7.10;100.00;101216.88;4974215;28;20237;-73
2022/04/28 01:58:19;;;;;;;0.20;0.20;;;7.10;99.90;;;7.03;100.00;101207.88;4984742;28;20212;-73
2022/04/28 02:01:07;;;;;;;0.20;0.20;;;7.20;99.90;;;6.90;100.00;101196.84;4968225;28;20216;-74
2022/04/28 02:03:36;;;;;;;0.20;0.20;;;7.20;99.90;;;6.81;100.00;101207.03;4972011;28;20213;-74
2022/04/28 02:06:04;;;;;;;0.20;0.20;;;7.10;99.90;;;6.68;100.00;101203.97;4988145;28;20236;-73
2022/04/28 02:08:32;;;;;;;0.20;0.20;;;7.10;99.90;;;6.61;100.00;101215.09;4977691;28;20213;-73
2022/04/28 02:11:00;;;;;;;0.20;0.20;;;7.00;99.90;;;6.56;100.00;101218.38;4986918;28;20245;-74
2022/04/28 02:13:51;;;;;;;0.20;0.20;;;7.00;99.90;;;6.81;100.00;101243.84;4989654;28;20213;-74
2022/04/28 02:16:45;;;;;;;0.20;0.20;;;7.00;99.90;;;6.99;100.00;101263.81;4971911;28;20260;-74
2022/04/28 02:19:24;;;;;;;0.20;0.20;;;7.00;99.90;;;6.85;100.00;101245.75;4981993;28;20225;-74
2022/04/28 02:21:52;;;;;;;0.20;0.20;;;7.10;99.90;;;6.94;100.00;101253.97;4988895;28;20205;-73
2022/04/28 02:24:21;;;;;;;0.20;0.20;;;7.10;99.90;;;6.98;100.00;101248.88;4989238;28;20217;-74
2022/04/28 02:26:49;;;;;;;0.10;0.10;;;7.10;99.90;;;7.02;100.00;101244.63;4986470;28;20236;-74
2022/04/28 02:29:17;;;;;;;0.15;0.15;;;7.10;99.90;;;6.98;100.00;101243.63;4974521;28;20209;-74
2022/04/28 02:31:45;;;;;;;0.20;0.20;;;7.10;99.90;;;7.00;100.00;101246.31;4988472;28;20236;-73
2022/04/28 02:34:14;;;;;;;0.10;0.10;;;7.10;99.90;;;7.09;100.00;101251.91;4970387;28;20217;-74
2022/04/28 02:36:47;;;;;;;0.20;0.20;;;7.10;99.90;;;7.12;100.00;101254.66;4986412;28;20233;-74
2022/04/28 02:39:17;;;;;;;0.30;0.30;;;7.10;99.90;;;7.13;100.00;101251.19;4985159;28;20213;-74
2022/04/28 02:41:49;;;;;;;0.20;0.20;;;7.10;99.90;;;7.17;100.00;101253.06;4985580;28;20212;-74
2022/04/28 02:44:17;;;;;;;0.20;0.20;;;7.10;99.90;;;7.16;100.00;101239.88;4956084;28;20221;-74
2022/04/28 02:46:45;;;;;;;0.20;0.20;;;7.20;99.90;;;7.19;100.00;101242.59;4977167;28;20236;-74
2022/04/28 02:49:17;;;;;;;0.20;0.20;;;7.20;99.90;;;7.19;100.00;101239.97;4987518;28;20209;-73
2022/04/28 02:51:45;;;;;;;0.35;0.35;;;7.20;99.90;;;7.28;100.00;101241.19;4968912;28;20218;-74
2022/04/28 02:54:13;;;;;;;0.20;0.20;;;7.20;99.90;;;7.25;100.00;101237.56;4955943;28;20205;-74
2022/04/28 02:56:47;;;;;;;0.20;0.20;;;7.20;99.90;;;7.17;100.00;101233.75;4955546;28;20248;-74
2022/04/28 02:59:15;;;;;;;0.20;0.20;;;7.20;99.90;;;7.19;100.00;101232.97;4987117;28;20221;-74
2022/04/28 03:01:43;;;;;;;0.20;0.20;;;7.20;99.90;;;7.17;100.00;101239.91;4971478;28;20221;-74
2022/04/28 03:04:11;;;;;;;0.20;0.20;;;7.20;99.90;;;7.21;100.00;101233.94;4968396;28;20209;-74
2022/04/28 03:12:13;;;;;;;0.20;0.20;;;7.20;99.90;;;7.14;100.00;101239.81;4975685;28;20241;-74
2022/04/28 03:14:51;;;;;;;0.10;0.10;;;7.20;99.90;;;7.13;100.00;101240.66;4987304;28;20205;-74
2022/04/28 03:17:21;;;;;;;0.32;0.32;;;7.20;99.90;;;7.13;100.00;101231.88;4970276;28;20240;-73
2022/04/28 03:19:49;;;;;;;0.20;0.20;;;7.10;99.90;;;7.03;100.00;101238.53;4986656;28;20208;-74
2022/04/28 03:22:17;;;;;;;0.20;0.20;;;7.10;99.90;;;7.12;100.00;101236.22;4970135;28;20204;-74
2022/04/28 03:24:45;;;;;;;0.20;0.20;;;7.10;99.90;;;7.11;100.00;101242.34;4982351;28;20217;-73
2022/04/28 03:27:13;;;;;;;0.17;0.17;;;7.10;99.90;;;7.10;100.00;101243.16;4971570;28;20229;-73
2022/04/28 03:29:42;;;;;;;0.20;0.20;;;7.10;99.90;;;7.16;100.00;101248.66;4986842;28;20224;-73
2022/04/28 03:32:10;;;;;;;0.20;0.20;;;7.10;99.90;;;7.17;100.00;101252.19;4987109;28;20237;-74
2022/04/28 03:34:44;;;;;;;0.17;0.17;;;7.10;99.90;;;7.06;100.00;101246.53;4987001;28;20216;-73
2022/04/28 03:37:12;;;;;;;0.20;0.20;;;7.10;99.90;;;7.06;100.00;101255.31;4965112;28;20248;-74
2022/04/28 03:39:43;;;;;;;0.70;0.50;;;7.10;99.90;;;7.04;100.00;101254.38;4972805;28;20212;-74
2022/04/28 03:42:11;;;;;;;0.17;0.17;;;7.10;99.90;;;7.04;100.00;101267.53;4986472;28;20209;-74
2022/04/28 03:44:39;;;;;;;0.10;0.10;;;7.10;99.90;;;7.03;100.00;101264.84;4971021;28;20201;-74
2022/04/28 03:47:08;;;;;;;0.30;0.30;;;7.00;99.90;;;6.99;100.00;101263.81;4966242;28;20648;-74
2022/04/28 03:49:37;;;;;;;0.20;0.20;;;7.00;99.90;;;6.97;100.00;101261.97;4982513;28;20205;-74
2022/04/28 03:52:06;;;;;;;0.20;0.20;;;7.00;99.90;;;6.94;100.00;101272.38;4985704;28;20225;-74
2022/04/28 03:54:35;;;;;;;0.20;0.20;;;7.00;99.90;;;6.92;100.00;101274.06;4969806;28;20205;-74
2022/04/28 03:57:04;;;;;;;0.57;0.57;;;6.90;99.90;;;6.91;100.00;101275.81;4981568;28;20234;-74
2022/04/28 03:59:34;;;;;;;0.43;0.43;;;7.00;99.90;;;6.94;100.00;101281.16;4984796;28;20202;-74
2022/04/28 04:02:31;;;;;;;0.20;0.20;;;6.90;99.90;;;7.02;100.00;101292.88;4969672;28;20216;-74
2022/04/28 04:05:00;;;;;;;0.20;0.20;;;7.00;99.90;;;7.04;100.00;101306.06;4979842;28;20217;-74
2022/04/28 04:07:31;;;;;;;0.20;0.20;;;7.00;99.90;;;7.09;100.00;101314.13;4968020;28;20244;-74
2022/04/28 04:10:13;;;;;;;0.20;0.20;;;7.00;99.90;;;7.09;100.00;101316.75;4985762;28;20197;-74
2022/04/28 04:12:46;;;;;;;0.20;0.20;;;7.00;99.90;;;7.09;100.00;101317.66;4982122;28;20240;-74
2022/04/28 04:15:14;;;;;;;0.20;0.20;;;7.00;99.90;;;7.06;100.00;101313.19;4971992;28;20209;-73
2022/04/28 04:18:08;;;;;;;0.30;0.30;;;7.00;99.90;;;7.06;100.00;101321.06;4982784;28;20212;-74
2022/04/28 04:20:42;;;;;;;0.57;0.57;;;7.00;99.90;;;7.03;100.00;101318.34;4969400;28;20220;-74
2022/04/28 04:23:10;;;;;;;0.20;0.20;;;7.00;99.90;;;7.01;100.00;101314.75;4986234;28;20205;-75
2022/04/28 04:25:38;;;;;;;0.20;0.20;;;7.00;99.90;;;7.03;100.00;101322.69;4967623;28;20232;-74
2022/04/28 04:28:13;;;;;;;0.20;0.20;;;7.00;99.90;;;7.04;100.00;101330.66;4969543;28;20209;-74
2022/04/28 04:34:01;;;;;;;0.20;0.20;;;7.00;99.90;;;7.05;100.00;101332.44;4966608;28;20223;-73
2022/04/28 04:36:29;;;;;;;0.15;0.15;;;7.00;99.90;;;7.02;100.00;101341.94;4987208;28;20619;-74
2022/04/28 04:38:58;;;;;;;0.10;0.10;;;7.00;99.90;;;7.06;100.00;101349.09;4971388;28;20216;-74
2022/04/28 04:41:29;;;;;;;0.10;0.10;;;7.00;99.90;;;7.05;100.00;101349.94;4987184;28;20209;-73
2022/04/28 04:43:57;;;;;;;0.20;0.20;;;7.00;99.90;;;7.02;100.00;101352.47;4960178;28;20198;-73
2022/04/28 04:46:25;;;;;;;0.20;0.20;;;7.00;99.90;;;7.02;100.00;101365.63;4968430;28;20252;-74
2022/04/28 04:49:25;;;;;;;0.10;0.10;;;7.00;99.90;;;7.07;100.00;101374.56;4967555;28;20671;-73
2022/04/28 04:52:10;;;;;;;0.20;0.20;;;7.00;99.90;;;7.12;100.00;101377.38;4971152;28;20225;-74
2022/04/28 04:55:00;;;;;;;0.20;0.20;;;7.00;99.90;;;7.14;100.00;101376.59;4970966;28;20201;-74
2022/04/28 04:57:36;;;;;;;0.20;0.20;;;7.00;99.90;;;7.21;100.00;101388.25;4980383;28;20216;-74
2022/04/28 05:00:07;;;;;;;0.20;0.20;;;7.10;99.90;;;7.26;100.00;101397.22;4984393;28;20213;-74
2022/04/28 05:02:53;;;;;;;0.20;0.20;;;7.10;99.90;;;7.27;100.00;101402.53;4965145;28;20275;-74
2022/04/28 05:05:42;;;;;;;0.20;0.20;;;7.20;99.90;;;7.33;100.00;101410.66;4971060;28;20221;-76
2022/04/28 05:08:17;;;;;;;0.20;0.20;;;7.20;99.90;;;7.39;100.00;101420.50;4992165;28;20220;-74
2022/04/28 05:10:57;;;;;;;0.20;0.20;;;7.20;99.90;;;7.49;100.00;101424.38;4985815;28;20212;-74
2022/04/28 05:13:25;;;;;;;0.10;0.10;;;7.30;99.90;;;7.55;100.00;101421.97;4984625;28;20236;-76
2022/04/28 05:15:55;;;;;;;0.20;0.20;;;7.40;99.90;;;7.64;100.00;101424.94;4981759;28;20232;-76
2022/04/28 05:18:36;;;;;;;0.20;0.20;;;7.40;99.90;;;7.72;100.00;101434.03;4981141;28;20213;-74
2022/04/28 05:21:24;;;;;;;0.20;0.20;;;7.50;99.90;;;7.84;100.00;101439.75;4968336;28;20201;-74
2022/04/28 05:24:11;;;;;;;0.20;0.20;;;7.60;99.90;;;7.93;100.00;101447.09;4968737;28;20209;-77
2022/04/28 05:27:18;;;;;;;0.10;0.10;;;7.70;99.90;;;7.96;100.00;101439.31;4972071;28;20232;-78
2022/04/28 05:29:52;;;;;;;0.10;0.10;;;7.80;99.90;;;7.99;100.00;101440.31;4968838;28;20229;-79
2022/04/28 05:32:56;;;;;;;0.20;0.20;;;7.80;99.90;;;7.95;100.00;101450.69;4959418;28;20232;-75
2022/04/28 05:35:38;;;;;;;0.25;0.25;;;7.90;99.90;;;8.14;100.00;101465.41;4984982;28;20271;-74
2022/04/28 05:38:08;;;;;;;0.20;0.20;;;7.90;99.90;;;8.28;100.00;101462.41;4968993;28;20205;-76
2022/04/28 05:40:41;;;;;;;0.20;0.20;;;8.00;99.90;;;8.32;100.00;101473.94;4983309;28;20201;-74
2022/04/28 05:45:57;;;;;;;0.20;0.20;;;8.20;99.90;;;8.50;100.00;101471.09;4955666;28;20221;-75
2022/04/28 05:48:26;;;;;;;0.20;0.20;;;8.30;99.90;;;8.52;100.00;101480.84;4972967;28;20217;-74
2022/04/28 05:50:58;;;;;;;0.20;0.20;;;8.30;99.90;;;8.64;100.00;101488.25;4972892;28;20220;-74
2022/04/28 05:53:27;;;;;;;0.10;0.10;;;8.40;99.90;;;8.80;100.00;101495.84;4973528;28;20225;-74
2022/04/28 05:55:59;;;;;;;0.20;0.20;;;8.40;99.90;;;8.91;100.00;101496.19;4979890;28;20236;-75
2022/04/28 05:58:38;;;;;;;0.10;0.10;;;8.60;99.90;;;9.05;100.00;101499.28;4971253;28;20205;-74
2022/04/28 06:01:24;;;;;;;0.20;0.20;;;8.70;99.90;;;9.20;100.00;101505.97;4972964;28;20205;-75
2022/04/28 06:03:54;;;;;;;0.20;0.20;;;8.90;99.90;;;9.30;100.00;101508.03;4959913;28;20206;-75
2022/04/28 06:06:23;;;;;;;0.10;0.10;;;9.00;99.90;;;9.49;100.00;101504.22;4978931;28;20225;-75
2022/04/28 06:08:56;;;;;;;0.20;0.20;;;9.10;99.90;;;9.56;100.00;101503.56;4972526;28;20221;-75
2022/04/28 06:11:24;;;;;;;0.20;0.20;;;9.20;99.90;;;9.75;100.00;101502.34;4976938;28;20217;-76
2022/04/28 06:13:53;;;;;;;0.20;0.20;;;9.30;99.90;;;9.77;100.00;101494.47;4976433;28;20248;-75
2022/04/28 06:16:39;;;;;;;0.20;0.20;;;9.50;99.90;;;9.84;100.00;101494.69;4963968;28;20226;-75
2022/04/28 06:19:17;;;;;;;0.20;0.20;;;9.50;99.90;;;9.93;100.00;101492.31;4964543;28;20220;-75
2022/04/28 06:22:12;;;;;;;3.25;0.85;;;9.60;99.90;;;10.11;100.00;101496.31;4959041;28;20689;-74
2022/04/28 06:24:43;;;;;;;0.10;0.10;;;9.70;99.90;;;10.22;100.00;101508.13;4980277;28;20209;-77
2022/04/28 06:27:14;;;;;;;0.10;0.10;;;9.80;99.90;;;10.31;100.00;101494.25;4986520;28;20283;-75
2022/04/28 06:29:49;;;;;;;0.10;0.10;;;10.00;99.90;;;10.30;100.00;101493.38;4957710;28;20205;-74
2022/04/28 06:32:19;;;;;;;0.10;0.10;;;10.00;99.90;;;10.48;100.00;101493.00;4988042;28;20209;-75
2022/04/28 06:34:50;;;;;;;0.20;0.20;;;10.10;99.90;;;10.58;100.00;101492.38;4963387;28;20206;-75
2022/04/28 06:37:21;;;;;;;0.20;0.20;;;10.20;99.90;;;10.63;100.00;101492.50;4972610;28;20237;-75
2022/04/28 06:39:55;;;;;;;0.20;0.20;;;10.30;99.90;;;10.62;100.00;101481.03;4986816;28;20204;-75
2022/04/28 06:42:23;;;;;;;0.20;0.20;;;10.30;99.90;;;10.76;100.00;101486.66;4975651;28;20213;-74
2022/04/28 06:45:18;;;;;;;0.20;0.20;;;10.40;99.90;;;10.89;100.00;101494.03;4971523;28;20212;-76
2022/04/28 06:48:05;;;;;;;0.13;0.13;;;10.50;99.90;;;11.03;100.00;101495.28;4966864;28;20232;-74
2022/04/28 06:50:43;;;;;;;0.20;0.20;;;10.60;99.90;;;10.99;100.00;101481.94;4963042;28;20671;-74
2022/04/28 06:53:32;;;;;;;0.10;0.10;;;10.70;99.90;;;11.22;100.00;101491.31;4967594;28;20262;-76
2022/04/28 06:56:09;;;;;;;0.20;0.20;;;10.80;99.90;;;11.28;100.00;101469.38;4987806;28;20233;-74
2022/04/28 06:58:50;;;;;;;0.20;0.20;;;10.90;99.90;;;11.38;100.00;101452.81;4986565;28;20560;-74
2022/04/28 07:01:27;;;;;;;0.10;0.10;;;11.10;99.90;;;11.57;100.00;101460.31;4966728;28;20209;-75
2022/04/28 07:04:05;;;;;;;0.20;0.20;;;11.20;99.90;;;11.62;100.00;101466.59;4984654;28;20213;-75
2022/04/28 07:06:33;;;;;;;0.20;0.20;;;11.20;99.90;;;11.81;100.00;101462.63;4955373;28;20233;-75
2022/04/28 07:09:01;;;;;;;0.10;0.10;;;11.40;99.90;;;11.78;100.00;101441.38;4972495;28;20202;-76
2022/04/28 07:11:29;;;;;;;0.10;0.10;;;11.50;99.90;;;11.96;100.00;101447.03;4980082;28;20214;-76
2022/04/28 07:14:14;;;;;;;0.20;0.20;;;11.50;99.90;;;12.04;100.00;101434.81;4989433;28;20244;-74
2022/04/28 07:17:00;;;;;;;0.10;0.10;;;11.70;99.90;;;12.17;100.00;101438.59;4965875;28;20717;-74
2022/04/28 07:19:36;;;;;;;0.10;0.10;;;11.80;99.90;;;12.22;100.00;101421.00;4974861;28;20693;-75
2022/04/28 07:22:05;;;;;;;0.10;0.10;;;11.90;99.90;;;12.32;100.00;101412.34;4988435;28;20205;-74
2022/04/28 07:24:37;;;;;;;0.10;0.10;;;12.00;99.90;;;12.27;100.00;101387.50;4988965;28;20212;-75
2022/04/28 07:27:08;;;;;;;0.10;0.10;;;12.00;99.90;;;12.42;100.00;101400.13;4972110;28;20229;-74
2022/04/28 07:29:39;;;;;;;0.10;0.10;;;12.20;99.90;;;12.60;100.00;101404.84;4972288;28;20197;-75
2022/04/28 07:32:12;;;;;;;0.20;0.20;;;12.30;99.90;;;12.68;100.00;101413.81;4974855;28;20228;-74
2022/04/28 07:35:10;;;;;;;0.10;0.10;;;12.40;99.90;;;12.73;100.00;101398.88;4972287;28;20232;-74
2022/04/28 07:38:14;;;;;;;0.10;0.10;;;12.40;99.90;;;13.04;99.76;101387.84;4930849;29;20214;-76
2022/04/28 07:40:51;;;;;;;0.32;0.32;;;12.60;99.90;;;13.14;98.24;101384.47;4979673;28;20220;-75
2022/04/28 07:43:22;;;;;;;0.10;0.10;;;12.80;99.90;;;13.24;99.02;101381.97;4987962;28;20217;-74
2022/04/28 07:45:53;;;;;;;0.10;0.10;;;12.90;99.90;;;13.40;98.49;101376.88;4984814;28;20240;-75
2022/04/28 07:48:21;;;;;;;0.10;0.10;;;13.10;99.90;;;13.43;98.19;101363.63;4947928;28;20670;-74
2022/04/28 07:50:50;;;;;;;0.10;0.10;;;13.20;99.90;;;13.83;97.33;101382.69;4965738;28;20280;-75
2022/04/28 07:53:28;;;;;;;0.10;0.10;;;13.40;99.90;;;13.77;95.63;101350.69;4979968;28;20228;-74
2022/04/28 07:56:17;;;;;;;0.10;0.10;;;13.60;99.90;;;13.80;94.40;101334.78;4987156;28;20236;-74
2022/04/28 07:58:48;;;;;;;0.20;0.20;;;13.60;99.90;;;13.88;93.29;101313.59;4971069;28;20213;-75
2022/04/28 08:01:55;;;;;;;0.20;0.20;;;13.70;99.90;;;14.26;93.62;101335.22;4957950;28;20209;-75
2022/04/28 08:04:23;;;;;;;0.10;0.10;;;13.90;99.90;;;14.50;90.81;101314.16;4985055;28;20213;-74
2022/04/28 08:07:03;;;;;;;0.35;0.32;;;14.10;99.90;;;14.30;89.87;101260.78;4971033;28;20236;-74
2022/04/28 08:09:42;;;;;;;0.10;0.10;;;14.20;99.90;;;14.45;89.50;101251.16;4967431;28;20205;-74
2022/04/28 08:12:20;;;;;;;0.10;0.10;;;14.40;99.90;;;14.41;87.34;101231.56;4979519;28;20233;-74
2022/04/28 08:15:32;;;;;;;0.10;0.10;;;14.40;99.90;;;14.89;87.71;101249.59;4962281;28;20233;-75
2022/04/28 08:18:04;;;;;;;0.10;0.10;;;14.60;99.90;;;14.80;87.85;101235.34;4984549;28;20700;-74
2022/04/28 08:20:33;;;;;;;0.10;0.10;;;14.70;99.90;;;14.69;87.40;101214.91;4984033;28;20206;-74
2022/04/28 08:23:03;;;;;;;0.10;0.10;;;14.80;99.90;;;14.94;85.35;101209.66;4978064;28;20212;-74
2022/04/28 08:25:33;;;;;;;0.10;0.10;;;14.80;99.90;;;15.03;82.98;101169.75;4971816;28;20225;-74
2022/04/28 08:28:10;;;;;;;0.10;0.10;;;14.90;99.90;;;15.18;82.25;101163.56;4970462;28;20220;-74
2022/04/28 08:30:40;;;;;;;0.00;0.00;;;15.10;99.90;;;15.89;82.10;101194.78;4987513;28;20671;-74
2022/04/28 08:33:10;;;;;;;0.10;0.10;;;15.60;99.90;;;15.86;81.26;101136.97;4979009;28;20701;-75
2022/04/28 08:35:41;;;;;;;0.08;0.08;;;16.10;99.90;;;15.82;82.00;101148.53;4967101;28;20236;-74
2022/04/28 08:38:11;;;;;;;0.10;0.10;;;16.20;99.90;;;16.25;80.18;101146.66;4985981;28;20257;-74
2022/04/28 08:40:47;;;;;;;0.10;0.10;;;16.50;99.90;;;15.78;78.78;101071.22;4970237;28;20220;-74
2022/04/28 08:43:37;;;;;;;0.10;0.10;;;16.50;99.90;;;16.32;78.59;101129.75;4948817;28;20224;-74
2022/04/28 08:48:57;;;;;;;0.10;0.10;;;17.10;99.90;;;16.75;77.48;101086.84;4977951;28;20205;-74
2022/04/28 08:51:27;;;;;;;0.00;0.00;;;17.30;99.90;;;16.32;77.67;101033.66;4969185;28;20220;-74
2022/04/28 08:54:01;;;;;;;0.20;0.20;;;17.20;99.90;;;16.84;78.04;101107.28;4976881;28;20240;-76
2022/04/28 08:56:31;;;;;;;0.00;0.00;;;17.10;99.90;;;16.32;77.52;101006.06;4946831;28;20229;-74
2022/04/28 08:59:04;;;;;;;0.00;0.00;;;17.30;99.90;;;17.06;78.45;101116.97;4975008;28;20214;-74
2022/04/28 09:01:34;;;;;;;0.00;0.00;;;17.50;99.90;;;16.45;74.48;100942.81;4981900;28;20227;-74
2022/04/28 09:04:30;;;;;;;0.10;0.10;;;17.60;99.90;;;16.57;73.48;100932.06;4971288;28;20213;-74
2022/04/28 09:07:38;;;;;;;0.00;0.00;;;17.60;99.90;;;17.24;72.14;100972.50;4957902;28;20233;-75
2022/04/28 09:10:33;;;;;;;0.00;0.00;;;18.10;99.90;;;16.71;72.97;100911.50;4972411;28;20216;-74
2022/04/28 09:16:17;;;;;;;0.10;0.10;;;17.60;99.90;;;18.06;73.17;101045.63;4986431;28;20233;-75
2022/04/28 09:18:47;;;;;;;0.00;0.00;;;18.20;99.90;;;17.80;71.25;100948.72;4964355;28;20206;-75
2022/04/28 09:21:19;;;;;;;0.30;0.30;;;18.60;99.90;;;18.05;71.07;100963.56;4963010;28;20208;-75
2022/04/28 09:23:54;;;;;;;0.10;0.10;;;18.80;99.90;;;17.39;69.13;100821.72;4973782;28;20213;-75
2022/04/28 09:26:25;;;;;;;0.00;0.00;;;18.50;99.90;;;17.70;68.61;100859.69;4983327;28;20228;-74
2022/04/28 09:29:04;;;;;;;0.00;0.00;;;18.60;99.90;;;17.55;67.46;100809.03;4989984;28;20219;-75
2022/04/28 09:31:38;;;;;;;0.08;0.08;;;18.30;99.90;;;18.00;67.61;100854.81;4970087;28;20548;-74
2022/04/28 09:34:50;;;;;;;0.00;0.00;;;18.60;99.90;;;17.79;67.43;100787.31;4971916;28;20231;-74
2022/04/28 09:37:38;;;;;;;0.00;0.00;;;18.80;99.90;;;19.26;68.43;100961.72;4975355;28;20220;-74
2022/04/28 09:43:02;;;;;;;0.00;0.00;;;19.50;99.90;;;17.80;67.90;100761.47;4986284;28;20205;-80
2022/04/28 09:45:39;;;;;;;0.00;0.00;;;18.90;99.90;;;19.07;68.46;100913.81;4981769;28;20233;-74
2022/04/28 09:48:11;;;;;;;0.00;0.00;;;19.70;99.90;;;18.43;67.47;100783.63;4971987;28;20212;-74
2022/04/28 09:50:51;;;;;;;0.03;0.03;;;20.10;99.90;;;18.50;65.77;100771.91;4957836;28;20221;-77
2022/04/28 09:53:47;;;;;;;0.00;0.00;;;19.60;99.90;;;19.35;65.93;100863.22;4973573;28;20214;-74
2022/04/28 10:00:01;;;;;;;0.00;0.00;;;20.10;99.90;;;19.81;62.84;100782.66;4981745;28;20216;-73
2022/04/28 10:02:34;;;;;;;0.00;0.00;;;20.70;99.90;;;19.13;62.28;100650.97;4970146;28;20208;-73
2022/04/28 10:05:05;;;;;;;0.10;0.10;;;21.10;99.90;;;20.75;62.01;100834.97;4988048;28;20205;-74
2022/04/28 10:07:50;;;;;;;0.00;0.00;;;21.60;99.90;;;19.53;60.32;100598.25;4974212;28;20212;-77
2022/04/28 10:10:18;;;;;;;0.00;0.00;;;21.60;99.90;;;20.27;60.85;100714.41;4990485;28;20213;-74
2022/04/28 10:12:47;;;;;;;0.00;0.00;;;21.70;99.90;;;19.86;60.45;100634.06;4990500;28;20228;-74
2022/04/28 10:15:37;;;;;;;0.52;0.52;;;21.40;99.90;;;19.23;60.97;100554.22;4973425;28;20237;-74
2022/04/28 10:18:12;;;;;;;0.40;0.40;;;20.90;99.90;;;20.18;59.48;100657.38;4957304;28;20212;-74
2022/04/28 10:20:47;;;;;;;0.00;0.00;;;21.30;99.90;;;20.41;60.46;100681.84;4956269;28;20214;-76
2022/04/28 10:32:57;;;;;;;0.00;0.00;;;21.60;99.90;;;20.67;59.40;100635.44;4971225;28;20197;-74
2022/04/28 10:35:40;;;;;;;0.63;0.35;;;21.80;99.90;;;20.61;59.89;100625.72;4984009;28;20247;-75
2022/04/28 10:38:31;;;;;;;2.53;1.13;;;21.80;99.90;;;21.19;59.45;100672.41;4969998;28;20211;-75
2022/04/28 10:41:09;;;;;;;0.20;0.20;;;22.00;99.90;;;21.24;56.76;100564.72;4968578;28;20213;-74
2022/04/28 10:43:43;;;;;;;0.00;0.00;;;22.60;99.90;;;20.77;56.51;100479.22;4965253;28;20208;-75
2022/04/28 10:46:11;;;;;;;0.32;0.32;;;22.30;99.90;;;20.91;57.13;100503.00;4972582;28;20222;-75
2022/04/28 10:48:44;;;;;;;0.00;0.00;;;22.00;99.90;;;21.04;56.20;100487.34;4972977;28;20680;-75
2022/04/28 10:51:30;;;;;;;0.05;0.05;;;22.00;99.90;;;21.14;57.85;100537.19;4971080;28;20216;-75
2022/04/28 10:54:16;;;;;;;0.00;0.00;;;21.90;99.90;;;20.30;57.45;100372.38;4981860;28;20215;-76
2022/04/28 10:56:45;;;;;;;0.00;0.00;;;21.60;99.90;;;20.57;57.60;100432.41;4970670;28;20236;-75
2022/04/28 10:59:34;;;;;;;0.08;0.08;;;21.70;99.90;;;21.34;58.68;100574.25;4967825;28;20213;-75
2022/04/28 11:02:10;;;;;;;0.00;0.00;;;21.70;99.90;;;21.36;56.35;100491.66;4985478;28;20212;-74
2022/04/28 11:04:40;;;;;;;0.00;0.00;;;22.40;99.90;;;21.56;58.17;100544.78;4973895;28;20208;-77
2022/04/28 11:07:21;;;;;;;0.63;0.63;;;22.70;99.90;;;22.20;58.72;100618.88;4962344;28;20605;-75
2022/04/28 11:09:57;;;;;;;0.00;0.00;;;23.20;99.90;;;21.61;57.68;100491.69;4963517;28;20213;-74
2022/04/28 11:12:41;;;;;;;0.08;0.08;;;23.20;99.90;;;20.60;53.83;100237.06;4985116;28;20212;-76
2022/04/28 11:15:13;;;;;;;0.00;0.00;;;23.00;99.10;;;21.44;53.74;100357.75;4979310;28;20236;-74
2022/04/28 11:17:44;;;;;;;0.00;0.00;;;23.00;99.80;;;21.93;55.92;100466.28;4969850;28;20209;-76
2022/04/28 11:20:15;;;;;;;0.03;0.03;;;23.40;99.90;;;21.57;53.06;100321.38;4972275;28;20213;-74
2022/04/28 11:22:52;;;;;;;0.00;0.00;;;23.90;98.60;;;21.73;54.61;100368.31;4970772;28;20204;-74
2022/04/28 11:25:22;;;;;;;0.00;0.00;;;24.10;99.40;;;22.18;55.01;100421.41;4979070;28;20610;-75
2022/04/28 11:27:52;;;;;;;0.00;0.00;;;24.10;98.00;;;22.88;53.05;100456.34;4967872;28;20192;-74